Time;durP1;ratioP1;P1;durP2;ratioP2;P2;SDS_P1;SDS_P2;PMS_P1;PMS_P2;Temp;Humidity;BMP_temperature;BMP_pressure;BME280_temperature;BME280_humidity;BME280_pressure;Samples;Min_cycle;Max_cycle;Signal;HPM_P1;HPM_P2
2022/11/29 00:02:10;;;;;;;;;;;;;;;4.23;100.00;100916.94;5017953;28;20007;-58
2022/11/29 00:04:36;;;;;;;;;;;;;;;4.10;100.00;100920.69;5025257;28;20008;-59
2022/11/29 00:07:01;;;;;;;;;;;;;;;4.09;100.00;100923.47;5022747;28;19921;-55
2022/11/29 00:09:26;;;;;;;;;;;;;;;4.06;100.00;100926.38;5022017;28;19921;-59
2022/11/29 00:14:35;;;;;;;;;;;;;;;4.05;100.00;100922.91;5022096;28;19970;-55
2022/11/29 00:17:01;;;;;;;;;;;;;;;3.98;100.00;100927.03;5024631;28;19921;-59
2022/11/29 00:19:27;;;;;;;;;;;;;;;3.95;100.00;100924.72;5018578;28;20386;-52
2022/11/29 00:21:52;;;;;;;;;;;;;;;3.95;100.00;100929.94;5021948;28;19921;-59
2022/11/29 00:24:18;;;;;;;;;;;;;;;3.90;100.00;100935.59;5024859;28;19983;-58
2022/11/29 00:26:43;;;;;;;;;;;;;;;3.89;100.00;100928.69;5022507;28;19932;-57
2022/11/29 00:29:21;;;;;;;;;;;;;;;3.85;100.00;100939.59;5048855;28;19937;-58
2022/11/29 00:31:46;;;;;;;;;;;;;;;3.77;100.00;100945.53;5042787;28;20248;-59
2022/11/29 00:34:12;;;;;;;;;;;;;;;3.75;100.00;100952.69;5034918;28;19924;-58
2022/11/29 00:36:38;;;;;;;;;;;;;;;3.72;100.00;100947.72;5039376;28;19998;-58
2022/11/29 00:39:04;;;;;;;;;;;;;;;3.75;100.00;100951.88;5037689;28;19960;-55
2022/11/29 00:41:29;;;;;;;;;;;;;;;3.81;100.00;100951.31;5036524;28;19929;-55
2022/11/29 00:43:54;;;;;;;;;;;;;;;3.79;100.00;100951.44;5041802;28;19932;-52
2022/11/29 00:46:20;;;;;;;;;;;;;;;3.82;100.00;100956.44;5039448;28;19922;-56
2022/11/29 00:48:45;;;;;;;;;;;;;;;3.85;100.00;100957.97;5042011;28;19921;-56
2022/11/29 00:51:10;;;;;;;;;;;;;;;3.86;100.00;100960.44;5036184;28;19920;-57
2022/11/29 00:53:36;;;;;;;;;;;;;;;3.86;100.00;100962.25;5037061;28;20294;-55
2022/11/29 00:56:02;;;;;;;;;;;;;;;3.86;100.00;100962.25;5043028;28;20386;-56
2022/11/29 00:58:27;;;;;;;;;;;;;;;3.88;100.00;100965.56;5027864;28;19936;-55
2022/11/29 01:00:53;;;;;;;;;;;;;;;3.90;100.00;100969.72;5035558;28;20374;-58
2022/11/29 01:03:18;;;;;;;;;;;;;;;3.94;100.00;100976.31;5037296;28;20012;-58
2022/11/29 01:05:43;;;;;;;;;;;;;;;3.99;100.00;100975.94;5037817;28;19929;-59
2022/11/29 01:08:09;;;;;;;;;;;;;;;4.02;100.00;100980.91;5040603;28;19921;-56
2022/11/29 01:10:34;;;;;;;;;;;;;;;4.05;100.00;100974.53;5035685;28;20040;-56
2022/11/29 01:12:59;;;;;;;;;;;;;;;4.10;100.00;100982.84;5040519;28;19971;-55
2022/11/29 01:15:25;;;;;;;;;;;;;;;4.15;100.00;100983.25;5038631;28;19925;-54
2022/11/29 01:17:50;;;;;;;;;;;;;;;4.20;100.00;100993.34;5040213;28;19924;-55
2022/11/29 01:20:15;;;;;;;;;;;;;;;4.23;100.00;100991.28;5043413;28;19992;-58
2022/11/29 01:22:40;;;;;;;;;;;;;;;4.25;100.00;100991.16;5035886;28;19921;-58
2022/11/29 01:25:06;;;;;;;;;;;;;;;4.32;100.00;100984.38;5033350;28;19939;-54
2022/11/29 01:27:32;;;;;;;;;;;;;;;4.34;100.00;100987.72;5040921;28;19921;-57
2022/11/29 01:29:57;;;;;;;;;;;;;;;4.35;100.00;100984.09;5041651;28;19921;-57
2022/11/29 01:32:22;;;;;;;;;;;;;;;4.44;100.00;100992.94;5038617;28;19917;-58
2022/11/29 01:34:47;;;;;;;;;;;;;;;4.49;100.00;100991.59;5037293;28;19929;-55
2022/11/29 01:37:13;;;;;;;;;;;;;;;4.57;100.00;100993.50;5037845;28;19917;-58
2022/11/29 01:39:38;;;;;;;;;;;;;;;4.57;100.00;100990.88;5034322;28;19925;-59
2022/11/29 01:42:04;;;;;;;;;;;;;;;4.52;100.00;100995.72;5026569;28;20052;-59
2022/11/29 01:44:29;;;;;;;;;;;;;;;4.55;100.00;101001.53;5025282;28;19921;-56
2022/11/29 01:46:55;;;;;;;;;;;;;;;4.62;100.00;101007.06;5027768;28;19928;-59
2022/11/29 01:49:26;;;;;;;;;;;;;;;4.67;100.00;101010.06;5029276;28;19920;-57
2022/11/29 01:51:54;;;;;;;;;;;;;;;4.74;100.00;101012.97;5027273;28;19928;-58
2022/11/29 01:54:20;;;;;;;;;;;;;;;4.82;100.00;101018.34;5027203;28;20298;-55
2022/11/29 01:56:47;;;;;;;;;;;;;;;4.84;100.00;101026.94;5031308;28;19947;-57
2022/11/29 01:59:14;;;;;;;;;;;;;;;4.85;100.00;101023.31;5020482;28;20020;-57
2022/11/29 02:01:39;;;;;;;;;;;;;;;4.92;100.00;101024.44;5022870;28;19925;-55
2022/11/29 02:04:05;;;;;;;;;;;;;;;4.99;100.00;101025.53;5026572;28;19921;-56
2022/11/29 02:06:31;;;;;;;;;;;;;;;5.06;100.00;101041.56;5027406;28;19959;-55
2022/11/29 02:08:56;;;;;;;;;;;;;;;5.16;100.00;101050.28;5022824;28;19925;-52
2022/11/29 02:11:21;;;;;;;;;;;;;;;5.24;100.00;101052.19;5014603;28;20019;-54
2022/11/29 02:14:05;;;;;;;;;;;;;;;5.30;100.00;101045.53;5020805;28;19932;-57
2022/11/29 02:16:43;;;;;;;;;;;;;;;5.33;100.00;101051.31;5017421;28;20390;-58
2022/11/29 02:19:27;;;;;;;;;;;;;;;5.39;100.00;101050.72;5027909;28;19998;-57
2022/11/29 02:21:56;;;;;;;;;;;;;;;5.46;100.00;101054.47;5022415;28;19928;-56
2022/11/29 02:24:31;;;;;;;;;;;;;;;5.42;100.00;101060.13;5019023;28;20345;-60
2022/11/29 02:27:02;;;;;;;;;;;;;;;5.32;100.00;101054.06;5021848;28;19921;-58
2022/11/29 02:29:46;;;;;;;;;;;;;;;5.24;100.00;101060.06;5024410;28;20656;-55
2022/11/29 02:32:20;;;;;;;;;;;;;;;5.23;100.00;101067.09;5025281;28;19929;-54
2022/11/29 02:35:17;;;;;;;;;;;;;;;5.24;100.00;101067.97;5023744;28;19929;-55
2022/11/29 02:38:05;;;;;;;;;;;;;;;5.23;100.00;101072.38;5019613;28;19929;-59
2022/11/29 02:40:33;;;;;;;;;;;;;;;5.28;100.00;101074.59;5028336;28;19921;-57
2022/11/29 02:42:58;;;;;;;;;;;;;;;5.29;100.00;101070.97;5019018;28;20005;-58
2022/11/29 02:45:26;;;;;;;;;;;;;;;5.34;100.00;101083.69;5023801;28;19925;-55
2022/11/29 02:48:01;;;;;;;;;;;;;;;5.35;100.00;101075.69;5024228;28;19921;-56
2022/11/29 02:50:26;;;;;;;;;;;;;;;5.41;100.00;101090.88;5029928;28;20392;-57
2022/11/29 02:52:51;;;;;;;;;;;;;;;5.44;100.00;101093.22;5019932;28;20028;-52
2022/11/29 02:55:19;;;;;;;;;;;;;;;5.43;100.00;101090.75;5030245;28;20001;-57
2022/11/29 02:57:53;;;;;;;;;;;;;;;5.44;100.00;101089.75;5019025;28;20358;-54
2022/11/29 03:00:20;;;;;;;;;;;;;;;5.46;100.00;101107.06;5027484;28;19987;-52
2022/11/29 03:03:04;;;;;;;;;;;;;;;5.49;100.00;101110.38;5020353;28;19921;-52
2022/11/29 03:06:04;;;;;;;;;;;;;;;5.47;100.00;101110.50;5030694;28;19925;-59
2022/11/29 03:08:32;;;;;;;;;;;;;;;5.45;100.00;101112.47;5005829;28;19921;-56
2022/11/29 03:11:11;;;;;;;;;;;;;;;5.44;100.00;101116.06;5025551;28;19933;-52
2022/11/29 03:13:55;;;;;;;;;;;;;;;5.43;100.00;101120.50;5031074;28;19925;-54
2022/11/29 03:16:42;;;;;;;;;;;;;;;5.40;100.00;101122.59;5021584;28;19921;-58
2022/11/29 03:19:10;;;;;;;;;;;;;;;5.44;100.00;101129.22;5025321;28;19937;-59
2022/11/29 03:21:41;;;;;;;;;;;;;;;5.46;100.00;101136.00;5019436;28;19925;-57
2022/11/29 03:24:26;;;;;;;;;;;;;;;5.46;100.00;101140.44;5027059;28;20320;-58
2022/11/29 03:26:58;;;;;;;;;;;;;;;5.49;100.00;101140.13;5026604;28;19921;-57
2022/11/29 03:29:46;;;;;;;;;;;;;;;5.49;100.00;101141.94;5019912;28;19925;-54
2022/11/29 03:32:31;;;;;;;;;;;;;;;5.47;100.00;101145.56;5019059;28;19921;-56
2022/11/29 03:34:59;;;;;;;;;;;;;;;5.48;100.00;101146.38;5022696;28;19966;-58
2022/11/29 03:37:36;;;;;;;;;;;;;;;5.43;100.00;101157.31;5024666;28;19932;-54
2022/11/29 03:40:05;;;;;;;;;;;;;;;5.47;100.00;101149.97;5028140;28;19921;-57
2022/11/29 03:42:33;;;;;;;;;;;;;;;5.44;100.00;101156.34;5027011;28;19960;-55
2022/11/29 03:45:01;;;;;;;;;;;;;;;5.44;100.00;101153.72;5023842;28;19929;-55
2022/11/29 03:47:30;;;;;;;;;;;;;;;5.45;100.00;101152.75;5018209;28;19921;-59
2022/11/29 03:50:00;;;;;;;;;;;;;;;5.41;100.00;101151.38;5027093;28;20371;-57
2022/11/29 03:52:28;;;;;;;;;;;;;;;5.40;100.00;101146.25;5022728;28;19922;-55
2022/11/29 03:55:02;;;;;;;;;;;;;;;5.38;100.00;101143.75;5022588;28;19951;-60
2022/11/29 03:57:31;;;;;;;;;;;;;;;5.38;100.00;101146.41;5024755;28;19929;-59
2022/11/29 04:00:03;;;;;;;;;;;;;;;5.37;100.00;101152.63;5023136;28;19972;-57
2022/11/29 04:02:37;;;;;;;;;;;;;;;5.39;100.00;101145.41;5018932;28;20465;-59
2022/11/29 04:05:21;;;;;;;;;;;;;;;5.36;100.00;101147.50;5025677;28;19921;-56
2022/11/29 04:07:52;;;;;;;;;;;;;;;5.33;100.00;101146.00;5015647;28;20012;-60
2022/11/29 04:10:17;;;;;;;;;;;;;;;5.33;100.00;101148.63;5022114;28;19929;-59
2022/11/29 04:12:43;;;;;;;;;;;;;;;5.34;100.00;101152.91;5028279;28;19975;-59
2022/11/29 04:15:26;;;;;;;;;;;;;;;5.46;100.00;101153.59;5024815;28;20325;-58
2022/11/29 04:18:03;;;;;;;;;;;;;;;5.47;100.00;101147.34;5021082;28;19921;-54
2022/11/29 04:20:32;;;;;;;;;;;;;;;5.45;100.00;101142.25;5025939;28;19933;-55
2022/11/29 04:22:57;;;;;;;;;;;;;;;5.50;100.00;101146.22;5014268;28;19929;-55
2022/11/29 04:25:28;;;;;;;;;;;;;;;5.47;100.00;101145.56;5022416;28;19925;-59
2022/11/29 04:28:02;;;;;;;;;;;;;;;5.37;100.00;101146.53;5025195;28;19921;-54
2022/11/29 04:30:33;;;;;;;;;;;;;;;5.52;100.00;101150.38;5024967;28;19951;-56
2022/11/29 04:33:01;;;;;;;;;;;;;;;5.33;100.00;101145.16;5027519;28;19936;-57
2022/11/29 04:35:44;;;;;;;;;;;;;;;5.33;100.00;101151.25;5013078;28;20282;-57
2022/11/29 04:38:29;;;;;;;;;;;;;;;5.34;100.00;101144.19;5023018;28;19925;-57
2022/11/29 04:41:04;;;;;;;;;;;;;;;5.34;100.00;101147.63;5026363;28;20287;-54
2022/11/29 04:43:47;;;;;;;;;;;;;;;5.34;100.00;101147.63;5017119;28;19925;-58
2022/11/29 04:46:24;;;;;;;;;;;;;;;5.33;100.00;101148.63;5022658;28;19928;-55
2022/11/29 04:49:02;;;;;;;;;;;;;;;5.33;100.00;101156.50;5017263;28;19975;-55
2022/11/29 04:51:30;;;;;;;;;;;;;;;5.33;100.00;101156.50;5023705;28;20383;-53
2022/11/29 04:53:55;;;;;;;;;;;;;;;5.34;100.00;101155.53;5023531;28;19967;-56
2022/11/29 04:56:40;;;;;;;;;;;;;;;5.37;100.00;101163.16;5023699;28;20317;-59
2022/11/29 04:59:11;;;;;;;;;;;;;;;5.38;100.00;101161.34;5020557;28;19925;-59
2022/11/29 05:01:51;;;;;;;;;;;;;;;5.34;100.00;101163.41;5017445;28;20368;-58
2022/11/29 05:04:16;;;;;;;;;;;;;;;5.33;100.00;101172.28;5027619;28;20321;-53
2022/11/29 05:06:41;;;;;;;;;;;;;;;5.33;100.00;101177.53;5024109;28;19975;-55
2022/11/29 05:09:16;;;;;;;;;;;;;;;5.32;100.00;101181.16;5025606;28;19960;-55
2022/11/29 05:11:59;;;;;;;;;;;;;;;5.31;100.00;101184.72;5023972;28;19921;-55
2022/11/29 05:14:24;;;;;;;;;;;;;;;5.29;100.00;101186.66;5021964;28;19930;-52
2022/11/29 05:16:52;;;;;;;;;;;;;;;5.31;100.00;101186.53;5028533;28;20028;-56
2022/11/29 05:19:36;;;;;;;;;;;;;;;5.30;100.00;101192.78;5024215;28;19925;-57
2022/11/29 05:22:19;;;;;;;;;;;;;;;5.26;100.00;101194.84;5023995;28;19925;-54
2022/11/29 05:24:51;;;;;;;;;;;;;;;5.23;100.00;101184.59;5023999;28;19922;-53
2022/11/29 05:27:22;;;;;;;;;;;;;;;5.20;100.00;101182.25;5027656;28;19933;-57
2022/11/29 05:30:05;;;;;;;;;;;;;;;5.19;100.00;101196.38;5030289;28;19925;-57
2022/11/29 05:32:44;;;;;;;;;;;;;;;5.20;100.00;101195.41;5029662;28;19924;-59
2022/11/29 05:35:16;;;;;;;;;;;;;;;5.23;100.00;101195.13;5033022;28;19921;-58
2022/11/29 05:37:59;;;;;;;;;;;;;;;5.19;100.00;101196.38;5025581;28;20405;-59
2022/11/29 05:40:49;;;;;;;;;;;;;;;5.18;100.00;101189.44;5024406;28;19921;-57
2022/11/29 05:43:26;;;;;;;;;;;;;;;5.18;100.00;101194.69;5031407;28;19928;-56
2022/11/29 05:45:59;;;;;;;;;;;;;;;5.13;100.00;101191.66;5027207;28;20011;-59
2022/11/29 05:48:44;;;;;;;;;;;;;;;5.10;100.00;101198.03;5026551;28;20032;-56
2022/11/29 05:51:15;;;;;;;;;;;;;;;5.11;100.00;101196.22;5024944;28;19971;-56
2022/11/29 05:53:53;;;;;;;;;;;;;;;5.17;100.00;101203.56;5023627;28;20407;-54
2022/11/29 05:56:35;;;;;;;;;;;;;;;5.13;100.00;101210.88;5029789;28;19925;-56
2022/11/29 05:59:04;;;;;;;;;;;;;;;5.13;100.00;101210.06;5027784;28;19925;-59
2022/11/29 06:01:48;;;;;;;;;;;;;;;5.09;100.00;101203.44;5020176;28;20007;-54
2022/11/29 06:04:18;;;;;;;;;;;;;;;5.07;100.00;101208.81;5025952;28;19920;-57
2022/11/29 06:06:51;;;;;;;;;;;;;;;5.10;100.00;101207.72;5017479;28;19929;-59
2022/11/29 06:09:32;;;;;;;;;;;;;;;5.09;100.00;101211.31;5029861;28;19975;-58
2022/11/29 06:12:05;;;;;;;;;;;;;;;5.05;100.00;101215.19;5033775;28;20066;-57
2022/11/29 06:14:33;;;;;;;;;;;;;;;5.05;100.00;101220.44;5032398;28;19948;-58
2022/11/29 06:17:17;;;;;;;;;;;;;;;5.06;100.00;101219.47;5021763;28;19921;-58
2022/11/29 06:19:52;;;;;;;;;;;;;;;5.07;100.00;101219.34;5021764;28;20703;-55
2022/11/29 06:22:20;;;;;;;;;;;;;;;5.05;100.00;101216.00;5020984;28;19924;-57
2022/11/29 06:25:01;;;;;;;;;;;;;;;5.04;100.00;101224.88;5027677;28;19960;-56
2022/11/29 06:27:41;;;;;;;;;;;;;;;5.09;100.00;101222.66;5022132;28;20420;-58
2022/11/29 06:30:09;;;;;;;;;;;;;;;4.99;100.00;101234.97;5024039;28;20322;-60
2022/11/29 06:32:49;;;;;;;;;;;;;;;5.00;100.00;101247.13;5021825;28;19999;-59
2022/11/29 06:35:20;;;;;;;;;;;;;;;4.98;100.00;101243.78;5018030;28;19959;-58
2022/11/29 06:37:49;;;;;;;;;;;;;;;5.00;100.00;101245.31;5024121;28;19925;-58
2022/11/29 06:40:14;;;;;;;;;;;;;;;4.97;100.00;101245.59;5024874;28;19921;-59
2022/11/29 06:42:40;;;;;;;;;;;;;;;4.97;100.00;101244.78;5022302;28;19941;-55
2022/11/29 06:45:05;;;;;;;;;;;;;;;4.96;100.00;101254.47;5024806;28;20450;-54
2022/11/29 06:47:41;;;;;;;;;;;;;;;4.94;100.00;101253.75;5019185;28;19921;-53
2022/11/29 06:50:09;;;;;;;;;;;;;;;4.92;100.00;101262.75;5023799;28;20378;-58
2022/11/29 06:52:42;;;;;;;;;;;;;;;4.90;100.00;101269.94;5023219;28;19932;-53
2022/11/29 06:55:19;;;;;;;;;;;;;;;4.83;100.00;101269.66;5028399;28;19936;-57
2022/11/29 06:57:51;;;;;;;;;;;;;;;4.78;100.00;101277.09;5026016;28;20467;-54
2022/11/29 07:00:27;;;;;;;;;;;;;;;4.74;100.00;101283.56;5021964;28;19924;-58
2022/11/29 07:03:14;;;;;;;;;;;;;;;4.72;100.00;101288.13;5018314;28;19921;-52
2022/11/29 07:05:40;;;;;;;;;;;;;;;4.71;100.00;101289.09;5029484;28;20325;-58
2022/11/29 07:08:25;;;;;;;;;;;;;;;4.67;100.00;101293.78;5028777;28;19921;-53
2022/11/29 07:10:52;;;;;;;;;;;;;;;4.67;100.00;101298.19;5026795;28;20345;-58
2022/11/29 07:13:18;;;;;;;;;;;;;;;4.65;100.00;101295.72;5021899;28;19961;-58
2022/11/29 07:15:57;;;;;;;;;;;;;;;4.66;100.00;101299.19;5021597;28;19929;-59
2022/11/29 07:18:28;;;;;;;;;;;;;;;4.67;100.00;101300.81;5021717;28;20382;-58
2022/11/29 07:20:56;;;;;;;;;;;;;;;4.65;100.00;101308.84;5024608;28;19921;-57
2022/11/29 07:23:34;;;;;;;;;;;;;;;4.65;100.00;101305.41;5013935;28;19955;-55
2022/11/29 07:26:18;;;;;;;;;;;;;;;4.64;100.00;101308.97;5017218;28;19925;-59
2022/11/29 07:28:55;;;;;;;;;;;;;;;4.65;100.00;101310.66;5027166;28;19928;-59
2022/11/29 07:31:23;;;;;;;;;;;;;;;4.60;100.00;101316.31;5021308;28;19924;-56
2022/11/29 07:33:48;;;;;;;;;;;;;;;4.61;100.00;101322.38;5023896;28;19929;-58
2022/11/29 07:36:16;;;;;;;;;;;;;;;4.61;100.00;101330.25;5020871;28;19921;-59
2022/11/29 07:38:54;;;;;;;;;;;;;;;4.60;100.00;101332.06;5018677;28;20012;-59
2022/11/29 07:41:44;;;;;;;;;;;;;;;4.65;100.00;101343.00;5019902;28;19957;-55
2022/11/29 07:44:09;;;;;;;;;;;;;;;4.64;100.00;101343.94;5015768;28;19921;-59
2022/11/29 07:46:35;;;;;;;;;;;;;;;4.65;100.00;101350.88;5021443;28;19927;-58
2022/11/29 07:49:00;;;;;;;;;;;;;;;4.60;100.00;101347.81;5018082;28;19921;-54
2022/11/29 07:51:25;;;;;;;;;;;;;;;4.56;100.00;101352.47;5020232;28;19929;-55
2022/11/29 07:53:50;;;;;;;;;;;;;;;4.57;100.00;101358.59;5028264;28;19927;-56
2022/11/29 07:56:16;;;;;;;;;;;;;;;4.55;100.00;101361.34;5018981;28;20367;-57
2022/11/29 07:58:41;;;;;;;;;;;;;;;4.53;100.00;101363.25;5025201;28;19967;-57
2022/11/29 08:01:07;;;;;;;;;;;;;;;4.59;100.00;101365.38;5023131;28;19972;-59
2022/11/29 08:03:34;;;;;;;;;;;;;;;4.55;100.00;101361.34;5022824;28;19925;-57
2022/11/29 08:05:59;;;;;;;;;;;;;;;4.55;100.00;101361.34;5026713;28;20334;-54
2022/11/29 08:08:24;;;;;;;;;;;;;;;4.48;100.00;101365.44;5021554;28;19929;-58
2022/11/29 08:10:49;;;;;;;;;;;;;;;4.52;100.00;101371.28;5024421;28;19921;-57
2022/11/29 08:13:17;;;;;;;;;;;;;;;4.54;100.00;101364.94;5020029;28;19975;-55
2022/11/29 08:15:46;;;;;;;;;;;;;;;4.56;100.00;101378.75;5014767;28;19925;-57
2022/11/29 08:18:12;;;;;;;;;;;;;;;4.55;100.00;101376.28;5015365;28;20382;-53
2022/11/29 08:20:39;;;;;;;;;;;;;;;4.66;100.00;101378.81;5019678;28;20353;-55
2022/11/29 08:23:04;;;;;;;;;;;;;;;4.56;100.00;101373.50;5020853;28;19929;-58
2022/11/29 08:25:29;;;;;;;;;;;;;;;4.55;100.00;101377.09;5020024;28;19936;-59
2022/11/29 08:27:55;;;;;;;;;;;;;;;4.57;100.00;101366.47;5027950;28;19929;-59
2022/11/29 08:30:23;;;;;;;;;;;;;;;4.57;100.00;101367.31;5021479;28;19935;-55
2022/11/29 08:32:49;;;;;;;;;;;;;;;4.56;100.00;101363.00;5022631;28;19935;-58
2022/11/29 08:35:15;;;;;;;;;;;;;;;4.59;100.00;101373.25;5022943;28;20008;-59
2022/11/29 08:37:40;;;;;;;;;;;;;;;4.58;100.00;101376.84;5018990;28;19975;-57
2022/11/29 08:40:06;;;;;;;;;;;;;;;4.58;100.00;101368.94;5029434;28;19921;-55
2022/11/29 08:42:31;;;;;;;;;;;;;;;4.50;100.00;101374.03;5026886;28;19924;-55
2022/11/29 08:44:56;;;;;;;;;;;;;;;4.48;100.00;101360.19;5036944;28;19980;-55
2022/11/29 08:47:36;;;;;;;;;;;;;;;4.45;100.00;101359.63;5015975;28;19978;-55
2022/11/29 08:50:11;;;;;;;;;;;;;;;4.46;100.00;101356.84;5031628;28;19943;-57
2022/11/29 08:55:25;;;;;;;;;;;;;;;4.53;100.00;101365.06;5027503;28;19980;-56
2022/11/29 08:57:50;;;;;;;;;;;;;;;4.51;100.00;101378.31;5034947;28;19967;-54
2022/11/29 09:00:16;;;;;;;;;;;;;;;4.49;100.00;101387.28;5034508;28;19921;-57
2022/11/29 09:02:41;;;;;;;;;;;;;;;4.48;100.00;101398.75;5024522;28;19925;-59
2022/11/29 09:05:07;;;;;;;;;;;;;;;4.47;100.00;101402.34;5029115;28;20019;-58
2022/11/29 09:07:33;;;;;;;;;;;;;;;4.42;100.00;101407.16;5033959;28;19953;-56
2022/11/29 09:09:59;;;;;;;;;;;;;;;4.40;100.00;101415.16;5031273;28;19921;-59
2022/11/29 09:12:25;;;;;;;;;;;;;;;4.37;100.00;101415.41;5032453;28;20330;-58
2022/11/29 09:14:50;;;;;;;;;;;;;;;4.48;100.00;101425.84;5032580;28;19971;-59
2022/11/29 09:17:15;;;;;;;;;;;;;;;4.49;100.00;101427.53;5031456;28;20378;-53
2022/11/29 09:19:40;;;;;;;;;;;;;;;4.48;100.00;101435.53;5032304;28;20008;-58
2022/11/29 09:22:06;;;;;;;;;;;;;;;4.43;100.00;101443.78;5031478;28;20015;-54
2022/11/29 09:24:32;;;;;;;;;;;;;;;4.38;100.00;101444.16;5028466;28;19925;-58
2022/11/29 09:26:57;;;;;;;;;;;;;;;4.39;100.00;101450.25;5030458;28;20424;-54
2022/11/29 09:29:22;;;;;;;;;;;;;;;4.42;100.00;101450.00;5029855;28;19968;-55
2022/11/29 09:31:48;;;;;;;;;;;;;;;4.42;100.00;101446.56;5032436;28;19932;-58
2022/11/29 09:34:17;;;;;;;;;;;;;;;4.46;100.00;101451.41;5028142;28;19944;-58
2022/11/29 09:36:46;;;;;;;;;;;;;;;4.45;100.00;101448.91;5033231;28;19928;-59
2022/11/29 09:39:11;;;;;;;;;;;;;;;4.45;100.00;101459.41;5024852;28;19945;-56
2022/11/29 09:41:52;;;;;;;;;;;;;;;4.43;100.00;101456.09;5032124;28;19929;-58
2022/11/29 09:44:17;;;;;;;;;;;;;;;4.39;100.00;101460.78;5030540;28;19925;-55
2022/11/29 09:46:42;;;;;;;;;;;;;;;4.38;100.00;101459.91;5028625;28;20332;-59
2022/11/29 09:49:12;;;;;;;;;;;;;;;4.35;100.00;101452.28;5031524;28;20431;-55
2022/11/29 09:52:10;;;;;;;;;;;;;;;4.37;100.00;101452.19;5023197;28;19929;-58
2022/11/29 09:54:42;;;;;;;;;;;;;;;4.44;100.00;101453.34;5005824;28;19928;-56
2022/11/29 09:57:09;;;;;;;;;;;;;;;4.40;100.00;101445.84;5030758;28;19948;-58
2022/11/29 09:59:41;;;;;;;;;;;;;;;4.44;100.00;101453.34;5026100;28;20004;-57
2022/11/29 10:02:18;;;;;;;;;;;;;;;4.40;100.00;101448.47;5028724;28;19921;-57
2022/11/29 10:04:47;;;;;;;;;;;;;;;4.42;100.00;101449.19;5029263;28;19921;-57
2022/11/29 10:07:17;;;;;;;;;;;;;;;4.47;100.00;101454.88;5028296;28;20401;-55
2022/11/29 10:09:45;;;;;;;;;;;;;;;4.41;100.00;101442.25;5027362;28;20357;-57
2022/11/29 10:12:16;;;;;;;;;;;;;;;4.37;100.00;101445.13;5027752;28;19921;-57
2022/11/29 10:14:59;;;;;;;;;;;;;;;4.42;100.00;101450.00;5032268;28;19927;-59
2022/11/29 10:17:33;;;;;;;;;;;;;;;4.45;100.00;101444.50;5029386;28;19925;-56
2022/11/29 10:20:14;;;;;;;;;;;;;;;4.43;100.00;101448.19;5036698;28;19949;-54
2022/11/29 10:23:02;;;;;;;;;;;;;;;4.45;100.00;101449.75;5031146;28;20504;-57
2022/11/29 10:25:33;;;;;;;;;;;;;;;4.52;100.00;101456.16;5029795;28;20016;-58
2022/11/29 10:27:58;;;;;;;;;;;;;;;4.52;100.00;101465.84;5030498;28;20012;-52
2022/11/29 10:30:24;;;;;;;;;;;;;;;4.54;100.00;101463.88;5031326;28;20036;-59
2022/11/29 10:32:53;;;;;;;;;;;;;;;4.52;100.00;101463.22;5024259;28;19925;-56
2022/11/29 10:35:19;;;;;;;;;;;;;;;4.56;100.00;101461.97;5023847;28;19959;-57
2022/11/29 10:37:45;;;;;;;;;;;;;;;4.61;100.00;101475.56;5028526;28;20309;-58
2022/11/29 10:40:21;;;;;;;;;;;;;;;4.72;100.00;101470.22;5031269;28;19928;-54
2022/11/29 10:42:52;;;;;;;;;;;;;;;4.78;100.00;101468.91;5029113;28;19933;-58
2022/11/29 10:45:37;;;;;;;;;;;;;;;4.78;100.00;101471.53;5028677;28;19921;-59
2022/11/29 10:48:10;;;;;;;;;;;;;;;4.77;100.00;101470.69;5024974;28;20293;-58
2022/11/29 10:50:35;;;;;;;;;;;;;;;4.71;100.00;101465.94;5030357;28;19925;-55
2022/11/29 10:53:29;;;;;;;;;;;;;;;4.68;100.00;101470.63;5034847;28;19925;-58
2022/11/29 10:56:06;;;;;;;;;;;;;;;4.70;100.00;101460.81;5015147;28;19944;-59
2022/11/29 10:58:32;;;;;;;;;;;;;;;4.71;100.00;101471.22;5028714;28;19971;-60
2022/11/29 11:00:59;;;;;;;;;;;;;;;4.74;100.00;101462.22;5031289;28;19932;-59
2022/11/29 11:03:24;;;;;;;;;;;;;;;4.78;100.00;101466.28;5030492;28;19953;-58
2022/11/29 11:05:57;;;;;;;;;;;;;;;4.81;100.00;101463.38;5030864;28;20383;-59
2022/11/29 11:08:23;;;;;;;;;;;;;;;4.90;100.00;101464.41;5027134;28;19956;-60
2022/11/29 11:10:55;;;;;;;;;;;;;;;5.02;100.00;101466.81;5027086;28;20438;-58
2022/11/29 11:13:21;;;;;;;;;;;;;;;5.13;100.00;101465.91;5018672;28;20012;-60
2022/11/29 11:15:46;;;;;;;;;;;;;;;5.09;100.00;101472.41;5029766;28;19924;-57
2022/11/29 11:18:19;;;;;;;;;;;;;;;5.07;100.00;101476.94;5024288;28;19925;-58
2022/11/29 11:20:50;;;;;;;;;;;;;;;5.11;100.00;101477.50;5026961;28;19929;-59
2022/11/29 11:23:24;;;;;;;;;;;;;;;5.15;100.00;101469.22;5031858;28;20350;-56
2022/11/29 11:25:55;;;;;;;;;;;;;;;5.10;100.00;101460.09;5024925;28;19925;-60
2022/11/29 11:28:22;;;;;;;;;;;;;;;5.11;100.00;101461.72;5025190;28;19922;-56
2022/11/29 11:30:58;;;;;;;;;;;;;;;4.94;100.00;101456.13;5014755;28;19932;-55
2022/11/29 11:33:28;;;;;;;;;;;;;;;4.84;100.00;101460.50;5027344;28;20486;-55
2022/11/29 11:36:12;;;;;;;;;;;;;;;4.71;100.00;101459.88;5022446;28;19921;-55
2022/11/29 11:38:49;;;;;;;;;;;;;;;4.69;100.00;101449.47;5030038;28;20445;-57
2022/11/29 11:41:16;;;;;;;;;;;;;;;4.72;100.00;101451.84;5025580;28;19976;-55
2022/11/29 11:43:47;;;;;;;;;;;;;;;4.85;100.00;101446.38;5026334;28;19964;-57
2022/11/29 11:46:13;;;;;;;;;;;;;;;4.98;100.00;101435.66;5018925;28;20453;-59
2022/11/29 11:48:39;;;;;;;;;;;;;;;5.06;100.00;101435.88;5027520;28;20047;-59
2022/11/29 11:51:04;;;;;;;;;;;;;;;5.11;100.00;101431.03;5030807;28;19925;-56
2022/11/29 11:53:35;;;;;;;;;;;;;;;5.09;100.00;101432.13;5025663;28;20306;-54
2022/11/29 11:56:02;;;;;;;;;;;;;;;4.99;100.00;101440.81;5030106;28;20354;-57
2022/11/29 11:58:32;;;;;;;;;;;;;;;5.00;100.00;101434.56;5021809;28;20509;-57
2022/11/29 12:00:59;;;;;;;;;;;;;;;5.07;100.00;101428.81;5029238;28;20051;-55
2022/11/29 12:03:43;;;;;;;;;;;;;;;5.05;100.00;101436.81;5025428;28;19948;-59
2022/11/29 12:06:27;;;;;;;;;;;;;;;5.10;100.00;101439.06;5023324;28;19921;-59
2022/11/29 12:09:02;;;;;;;;;;;;;;;5.00;100.00;101439.81;5024228;28;19921;-60
2022/11/29 12:11:32;;;;;;;;;;;;;;;5.01;100.00;101441.50;5025135;28;19931;-57
2022/11/29 12:13:58;;;;;;;;;;;;;;;5.05;100.00;101438.59;5026534;28;20337;-53
2022/11/29 12:16:27;;;;;;;;;;;;;;;5.16;100.00;101443.75;5028609;28;19936;-54
2022/11/29 12:18:57;;;;;;;;;;;;;;;5.18;100.00;101445.31;5026264;28;19921;-59
2022/11/29 12:21:25;;;;;;;;;;;;;;;5.21;100.00;101442.44;5025360;28;19936;-58
2022/11/29 12:24:09;;;;;;;;;;;;;;;5.20;100.00;101445.19;5028677;28;20309;-55
2022/11/29 12:26:38;;;;;;;;;;;;;;;5.18;100.00;101444.47;5022368;28;19921;-59
2022/11/29 12:29:08;;;;;;;;;;;;;;;5.17;100.00;101448.91;5027725;28;19990;-55
2022/11/29 12:31:54;;;;;;;;;;;;;;;5.16;100.00;101438.50;5027060;28;19925;-59
2022/11/29 12:34:22;;;;;;;;;;;;;;;5.00;100.00;101434.56;5019723;28;20333;-55
2022/11/29 12:36:50;;;;;;;;;;;;;;;4.94;100.00;101431.66;5024983;28;19929;-58
2022/11/29 12:39:39;;;;;;;;;;;;;;;4.90;100.00;101432.88;5025770;28;19917;-58
2022/11/29 12:42:19;;;;;;;;;;;;;;;4.78;100.00;101432.94;5021726;28;20015;-58
2022/11/29 12:45:04;;;;;;;;;;;;;;;4.92;100.00;101431.75;5029472;28;19917;-60
2022/11/29 12:47:35;;;;;;;;;;;;;;;5.05;100.00;101433.34;5026196;28;19921;-53
2022/11/29 12:50:13;;;;;;;;;;;;;;;4.98;100.00;101431.25;5023852;28;19929;-58
2022/11/29 12:53:13;;;;;;;;;;;;;;;4.89;100.00;101437.28;5024371;28;19925;-55
2022/11/29 12:55:57;;;;;;;;;;;;;;;4.79;100.00;101436.41;5013052;28;19948;-53
2022/11/29 12:58:31;;;;;;;;;;;;;;;4.82;100.00;101441.41;5021962;28;19928;-54
2022/11/29 13:01:06;;;;;;;;;;;;;;;4.75;100.00;101448.13;5024042;28;19921;-58
2022/11/29 13:03:37;;;;;;;;;;;;;;;4.73;100.00;101442.19;5026990;28;19931;-55